sensor_id;sensor_type;location;lat;lon;timestamp;temperature;humidity
33067;DHT22;19428;49.024;8.366;2023-06-14T00:01:02;15.60;1.00
33067;DHT22;19428;49.024;8.366;2023-06-14T00:03:28;15.50;1.00
33067;DHT22;19428;49.024;8.366;2023-06-14T00:05:54;15.40;1.00
33067;DHT22;19428;49.024;8.366;2023-06-14T00:08:20;15.40;1.00
33067;DHT22;19428;49.024;8.366;2023-06-14T00:10:48;15.50;1.00
33067;DHT22;19428;49.024;8.366;2023-06-14T00:13:14;15.30;1.00
33067;DHT22;19428;49.024;8.366;2023-06-14T00:15:40;15.10;1.00
33067;DHT22;19428;49.024;8.366;2023-06-14T00:18:06;15.00;1.00
33067;DHT22;19428;49.024;8.366;2023-06-14T00:20:32;15.00;1.00
33067;DHT22;19428;49.024;8.366;2023-06-14T00:23:02;14.90;1.00
33067;DHT22;19428;49.024;8.366;2023-06-14T00:25:28;15.20;1.70
33067;DHT22;19428;49.024;8.366;2023-06-14T00:27:54;15.20;1.30
33067;DHT22;19428;49.024;8.366;2023-06-14T00:30:20;15.20;1.30
33067;DHT22;19428;49.024;8.366;2023-06-14T00:32:46;15.00;1.40
33067;DHT22;19428;49.024;8.366;2023-06-14T00:35:12;14.90;1.90
33067;DHT22;19428;49.024;8.366;2023-06-14T00:37:38;14.80;2.30
33067;DHT22;19428;49.024;8.366;2023-06-14T00:40:05;14.70;3.10
33067;DHT22;19428;49.024;8.366;2023-06-14T00:42:31;14.60;3.00
33067;DHT22;19428;49.024;8.366;2023-06-14T00:44:57;14.50;4.70
33067;DHT22;19428;49.024;8.366;2023-06-14T00:47:23;14.30;5.70
33067;DHT22;19428;49.024;8.366;2023-06-14T00:49:53;14.40;6.90
33067;DHT22;19428;49.024;8.366;2023-06-14T00:52:20;14.40;7.50
33067;DHT22;19428;49.024;8.366;2023-06-14T00:54:46;14.60;6.20
33067;DHT22;19428;49.024;8.366;2023-06-14T00:57:12;14.70;5.70
33067;DHT22;19428;49.024;8.366;2023-06-14T00:59:44;14.60;4.70
33067;DHT22;19428;49.024;8.366;2023-06-14T01:02:10;14.80;3.80
33067;DHT22;19428;49.024;8.366;2023-06-14T01:04:37;14.80;3.60
33067;DHT22;19428;49.024;8.366;2023-06-14T01:07:43;14.80;2.40
33067;DHT22;19428;49.024;8.366;2023-06-14T01:10:25;14.90;2.40
33067;DHT22;19428;49.024;8.366;2023-06-14T01:15:30;14.70;3.70
33067;DHT22;19428;49.024;8.366;2023-06-14T01:17:57;14.70;3.30
33067;DHT22;19428;49.024;8.366;2023-06-14T01:20:29;14.60;3.70
33067;DHT22;19428;49.024;8.366;2023-06-14T01:22:55;14.60;4.00
33067;DHT22;19428;49.024;8.366;2023-06-14T01:25:21;14.60;4.60
33067;DHT22;19428;49.024;8.366;2023-06-14T01:27:57;14.40;4.90
33067;DHT22;19428;49.024;8.366;2023-06-14T01:30:24;14.30;5.20
33067;DHT22;19428;49.024;8.366;2023-06-14T01:32:54;14.30;4.90
33067;DHT22;19428;49.024;8.366;2023-06-14T01:35:21;14.40;4.60
33067;DHT22;19428;49.024;8.366;2023-06-14T01:37:47;14.50;4.40
33067;DHT22;19428;49.024;8.366;2023-06-14T01:40:14;14.40;4.80
33067;DHT22;19428;49.024;8.366;2023-06-14T01:42:41;14.20;6.00
33067;DHT22;19428;49.024;8.366;2023-06-14T01:45:08;14.10;7.10
33067;DHT22;19428;49.024;8.366;2023-06-14T01:47:35;13.90;7.10
33067;DHT22;19428;49.024;8.366;2023-06-14T01:50:04;14.00;7.20
33067;DHT22;19428;49.024;8.366;2023-06-14T01:52:30;13.80;8.10
33067;DHT22;19428;49.024;8.366;2023-06-14T01:54:55;13.80;9.80
33067;DHT22;19428;49.024;8.366;2023-06-14T01:57:22;13.80;9.40
33067;DHT22;19428;49.024;8.366;2023-06-14T01:59:48;13.80;10.20
33067;DHT22;19428;49.024;8.366;2023-06-14T02:02:14;13.70;12.50
33067;DHT22;19428;49.024;8.366;2023-06-14T02:04:41;13.60;12.30
33067;DHT22;19428;49.024;8.366;2023-06-14T02:07:07;13.60;14.00
33067;DHT22;19428;49.024;8.366;2023-06-14T02:09:34;13.50;16.30
33067;DHT22;19428;49.024;8.366;2023-06-14T02:12:00;13.50;17.50
33067;DHT22;19428;49.024;8.366;2023-06-14T02:14:26;13.50;19.20
33067;DHT22;19428;49.024;8.366;2023-06-14T02:16:52;13.50;20.60
33067;DHT22;19428;49.024;8.366;2023-06-14T02:19:19;13.40;20.80
33067;DHT22;19428;49.024;8.366;2023-06-14T02:21:46;13.30;21.90
33067;DHT22;19428;49.024;8.366;2023-06-14T02:24:13;13.60;19.30
33067;DHT22;19428;49.024;8.366;2023-06-14T02:26:38;13.70;18.20
33067;DHT22;19428;49.024;8.366;2023-06-14T02:29:05;14.10;12.00
33067;DHT22;19428;49.024;8.366;2023-06-14T02:31:31;14.40;10.10
33067;DHT22;19428;49.024;8.366;2023-06-14T02:33:58;14.50;8.20
33067;DHT22;19428;49.024;8.366;2023-06-14T02:36:23;14.60;6.90
33067;DHT22;19428;49.024;8.366;2023-06-14T02:38:49;14.70;5.70
33067;DHT22;19428;49.024;8.366;2023-06-14T02:41:15;14.60;6.00
33067;DHT22;19428;49.024;8.366;2023-06-14T02:43:40;14.60;6.00
33067;DHT22;19428;49.024;8.366;2023-06-14T02:46:06;14.70;5.70
33067;DHT22;19428;49.024;8.366;2023-06-14T02:48:32;14.70;5.50
33067;DHT22;19428;49.024;8.366;2023-06-14T02:50:58;14.90;5.00
33067;DHT22;19428;49.024;8.366;2023-06-14T02:53:23;14.80;5.50
33067;DHT22;19428;49.024;8.366;2023-06-14T02:55:49;14.30;7.40
33067;DHT22;19428;49.024;8.366;2023-06-14T02:58:15;14.20;9.80
33067;DHT22;19428;49.024;8.366;2023-06-14T03:00:42;14.40;9.00
33067;DHT22;19428;49.024;8.366;2023-06-14T03:03:07;14.50;8.10
33067;DHT22;19428;49.024;8.366;2023-06-14T03:05:44;14.60;7.60
33067;DHT22;19428;49.024;8.366;2023-06-14T03:08:13;14.80;7.20
33067;DHT22;19428;49.024;8.366;2023-06-14T03:10:47;14.80;7.50
33067;DHT22;19428;49.024;8.366;2023-06-14T03:13:14;14.70;7.80
33067;DHT22;19428;49.024;8.366;2023-06-14T03:15:41;14.70;7.80
33067;DHT22;19428;49.024;8.366;2023-06-14T03:18:10;14.70;7.80
33067;DHT22;19428;49.024;8.366;2023-06-14T03:20:37;14.70;8.10
33067;DHT22;19428;49.024;8.366;2023-06-14T03:23:03;14.70;8.30
33067;DHT22;19428;49.024;8.366;2023-06-14T03:25:29;14.70;8.60
33067;DHT22;19428;49.024;8.366;2023-06-14T03:27:56;14.70;8.20
33067;DHT22;19428;49.024;8.366;2023-06-14T03:30:21;14.70;8.40
33067;DHT22;19428;49.024;8.366;2023-06-14T03:32:47;14.60;9.00
33067;DHT22;19428;49.024;8.366;2023-06-14T03:35:12;14.60;9.10
33067;DHT22;19428;49.024;8.366;2023-06-14T03:37:44;14.60;8.90
33067;DHT22;19428;49.024;8.366;2023-06-14T03:40:10;14.60;8.90
33067;DHT22;19428;49.024;8.366;2023-06-14T03:42:36;14.60;8.50
33067;DHT22;19428;49.024;8.366;2023-06-14T03:45:02;14.60;8.50
33067;DHT22;19428;49.024;8.366;2023-06-14T03:47:28;14.50;8.90
33067;DHT22;19428;49.024;8.366;2023-06-14T03:49:53;14.50;8.60
33067;DHT22;19428;49.024;8.366;2023-06-14T03:52:19;14.60;8.40
33067;DHT22;19428;49.024;8.366;2023-06-14T03:54:44;14.70;7.70
33067;DHT22;19428;49.024;8.366;2023-06-14T03:57:11;14.80;6.80
33067;DHT22;19428;49.024;8.366;2023-06-14T03:59:37;14.90;6.00
33067;DHT22;19428;49.024;8.366;2023-06-14T04:02:03;15.10;5.00
33067;DHT22;19428;49.024;8.366;2023-06-14T04:04:28;15.20;4.20
33067;DHT22;19428;49.024;8.366;2023-06-14T04:06:57;15.30;4.10
33067;DHT22;19428;49.024;8.366;2023-06-14T04:09:24;15.20;3.70
33067;DHT22;19428;49.024;8.366;2023-06-14T04:11:53;15.20;4.10
33067;DHT22;19428;49.024;8.366;2023-06-14T04:14:21;15.20;4.10
33067;DHT22;19428;49.024;8.366;2023-06-14T04:16:48;15.30;4.20
33067;DHT22;19428;49.024;8.366;2023-06-14T04:19:15;15.40;3.90
33067;DHT22;19428;49.024;8.366;2023-06-14T04:21:41;15.40;4.40
33067;DHT22;19428;49.024;8.366;2023-06-14T04:24:07;15.40;4.30
33067;DHT22;19428;49.024;8.366;2023-06-14T04:26:39;15.70;4.40
33067;DHT22;19428;49.024;8.366;2023-06-14T04:29:05;15.70;3.90
33067;DHT22;19428;49.024;8.366;2023-06-14T04:31:32;15.70;3.80
33067;DHT22;19428;49.024;8.366;2023-06-14T04:33:59;15.80;3.20
33067;DHT22;19428;49.024;8.366;2023-06-14T04:36:25;15.90;3.50
33067;DHT22;19428;49.024;8.366;2023-06-14T04:38:52;16.10;3.30
33067;DHT22;19428;49.024;8.366;2023-06-14T04:41:22;16.30;3.60
33067;DHT22;19428;49.024;8.366;2023-06-14T04:43:54;16.20;2.70
33067;DHT22;19428;49.024;8.366;2023-06-14T04:46:19;16.50;4.10
33067;DHT22;19428;49.024;8.366;2023-06-14T04:48:45;16.50;2.60
33067;DHT22;19428;49.024;8.366;2023-06-14T04:51:13;16.40;2.50
33067;DHT22;19428;49.024;8.366;2023-06-14T04:53:38;16.30;3.00
33067;DHT22;19428;49.024;8.366;2023-06-14T04:56:04;16.50;2.50
33067;DHT22;19428;49.024;8.366;2023-06-14T04:58:30;16.70;2.40
33067;DHT22;19428;49.024;8.366;2023-06-14T05:00:56;16.50;1.60
33067;DHT22;19428;49.024;8.366;2023-06-14T05:03:25;16.60;1.20
33067;DHT22;19428;49.024;8.366;2023-06-14T05:05:52;16.60;2.20
33067;DHT22;19428;49.024;8.366;2023-06-14T05:08:18;16.70;1.40
33067;DHT22;19428;49.024;8.366;2023-06-14T05:10:44;16.80;1.50
33067;DHT22;19428;49.024;8.366;2023-06-14T05:13:09;17.00;1.60
33067;DHT22;19428;49.024;8.366;2023-06-14T05:15:36;17.40;1.00
33067;DHT22;19428;49.024;8.366;2023-06-14T05:18:01;17.30;1.00
33067;DHT22;19428;49.024;8.366;2023-06-14T05:20:28;17.20;1.00
33067;DHT22;19428;49.024;8.366;2023-06-14T05:22:54;17.20;1.00
33067;DHT22;19428;49.024;8.366;2023-06-14T05:25:20;17.10;1.00
33067;DHT22;19428;49.024;8.366;2023-06-14T05:27:46;17.40;1.00
33067;DHT22;19428;49.024;8.366;2023-06-14T05:30:13;17.40;1.00
33067;DHT22;19428;49.024;8.366;2023-06-14T05:32:39;17.40;1.00
33067;DHT22;19428;49.024;8.366;2023-06-14T05:35:05;17.60;1.00
33067;DHT22;19428;49.024;8.366;2023-06-14T05:37:31;18.00;1.00
33067;DHT22;19428;49.024;8.366;2023-06-14T05:39:57;18.10;1.00
33067;DHT22;19428;49.024;8.366;2023-06-14T05:42:22;18.20;1.00
33067;DHT22;19428;49.024;8.366;2023-06-14T05:44:48;18.30;1.00
33067;DHT22;19428;49.024;8.366;2023-06-14T05:47:14;18.40;1.00
33067;DHT22;19428;49.024;8.366;2023-06-14T05:49:39;18.50;1.00
33067;DHT22;19428;49.024;8.366;2023-06-14T05:52:05;18.90;1.00
33067;DHT22;19428;49.024;8.366;2023-06-14T05:54:31;18.70;1.00
33067;DHT22;19428;49.024;8.366;2023-06-14T05:56:57;19.00;1.00
33067;DHT22;19428;49.024;8.366;2023-06-14T05:59:27;19.00;1.00
33067;DHT22;19428;49.024;8.366;2023-06-14T06:01:53;18.60;1.00
33067;DHT22;19428;49.024;8.366;2023-06-14T06:04:18;18.50;1.00
33067;DHT22;19428;49.024;8.366;2023-06-14T06:06:45;18.40;1.00
33067;DHT22;19428;49.024;8.366;2023-06-14T06:09:10;18.40;1.00
33067;DHT22;19428;49.024;8.366;2023-06-14T06:11:36;18.60;1.00
33067;DHT22;19428;49.024;8.366;2023-06-14T06:14:01;18.70;1.00
33067;DHT22;19428;49.024;8.366;2023-06-14T06:16:27;18.80;1.00
33067;DHT22;19428;49.024;8.366;2023-06-14T06:18:53;19.00;1.00
33067;DHT22;19428;49.024;8.366;2023-06-14T06:21:18;18.60;1.00
33067;DHT22;19428;49.024;8.366;2023-06-14T06:23:44;18.90;1.00
33067;DHT22;19428;49.024;8.366;2023-06-14T06:26:09;19.10;1.00
33067;DHT22;19428;49.024;8.366;2023-06-14T06:28:35;19.90;1.00
33067;DHT22;19428;49.024;8.366;2023-06-14T06:31:00;19.80;1.00
33067;DHT22;19428;49.024;8.366;2023-06-14T06:33:26;19.30;1.00
33067;DHT22;19428;49.024;8.366;2023-06-14T06:35:52;20.10;1.00
33067;DHT22;19428;49.024;8.366;2023-06-14T06:38:17;19.90;1.00
33067;DHT22;19428;49.024;8.366;2023-06-14T06:40:44;19.30;1.00
33067;DHT22;19428;49.024;8.366;2023-06-14T06:43:10;19.90;1.00
33067;DHT22;19428;49.024;8.366;2023-06-14T06:45:39;20.20;1.00
33067;DHT22;19428;49.024;8.366;2023-06-14T06:48:05;19.90;1.00
33067;DHT22;19428;49.024;8.366;2023-06-14T06:50:31;19.90;1.00
33067;DHT22;19428;49.024;8.366;2023-06-14T06:52:56;19.60;1.00
33067;DHT22;19428;49.024;8.366;2023-06-14T06:55:22;19.30;1.00
33067;DHT22;19428;49.024;8.366;2023-06-14T06:57:48;19.70;1.00
33067;DHT22;19428;49.024;8.366;2023-06-14T07:00:15;19.80;1.00
33067;DHT22;19428;49.024;8.366;2023-06-14T07:02:41;20.90;1.00
33067;DHT22;19428;49.024;8.366;2023-06-14T07:05:07;20.90;1.00
33067;DHT22;19428;49.024;8.366;2023-06-14T07:07:34;21.10;1.00
33067;DHT22;19428;49.024;8.366;2023-06-14T07:09:59;20.70;1.00
33067;DHT22;19428;49.024;8.366;2023-06-14T07:12:30;20.90;1.00
33067;DHT22;19428;49.024;8.366;2023-06-14T07:14:57;20.40;1.00
33067;DHT22;19428;49.024;8.366;2023-06-14T07:17:22;20.40;1.00
33067;DHT22;19428;49.024;8.366;2023-06-14T07:19:48;20.40;1.00
33067;DHT22;19428;49.024;8.366;2023-06-14T07:22:14;20.60;1.00
33067;DHT22;19428;49.024;8.366;2023-06-14T07:24:39;21.00;1.00
33067;DHT22;19428;49.024;8.366;2023-06-14T07:27:06;21.50;1.00
33067;DHT22;19428;49.024;8.366;2023-06-14T07:29:31;20.90;1.00
33067;DHT22;19428;49.024;8.366;2023-06-14T07:31:57;20.40;1.00
33067;DHT22;19428;49.024;8.366;2023-06-14T07:34:22;20.90;1.00
33067;DHT22;19428;49.024;8.366;2023-06-14T07:36:48;21.30;1.00
33067;DHT22;19428;49.024;8.366;2023-06-14T07:39:13;20.70;1.00
33067;DHT22;19428;49.024;8.366;2023-06-14T07:41:39;21.30;1.00
33067;DHT22;19428;49.024;8.366;2023-06-14T07:44:05;21.20;1.00
33067;DHT22;19428;49.024;8.366;2023-06-14T07:46:31;21.20;1.00
33067;DHT22;19428;49.024;8.366;2023-06-14T07:48:56;21.10;1.00
33067;DHT22;19428;49.024;8.366;2023-06-14T07:51:22;21.30;1.00
33067;DHT22;19428;49.024;8.366;2023-06-14T07:53:48;21.60;1.00
33067;DHT22;19428;49.024;8.366;2023-06-14T07:56:14;21.70;1.00
33067;DHT22;19428;49.024;8.366;2023-06-14T07:58:40;21.40;1.00
33067;DHT22;19428;49.024;8.366;2023-06-14T08:01:06;21.30;1.00
33067;DHT22;19428;49.024;8.366;2023-06-14T08:03:33;20.90;1.00
33067;DHT22;19428;49.024;8.366;2023-06-14T08:05:59;21.30;1.00
33067;DHT22;19428;49.024;8.366;2023-06-14T08:08:26;21.60;1.00
33067;DHT22;19428;49.024;8.366;2023-06-14T08:10:51;21.40;1.00
33067;DHT22;19428;49.024;8.366;2023-06-14T08:13:17;21.40;1.00
33067;DHT22;19428;49.024;8.366;2023-06-14T08:15:43;21.40;1.00
33067;DHT22;19428;49.024;8.366;2023-06-14T08:18:09;22.20;1.00
33067;DHT22;19428;49.024;8.366;2023-06-14T08:20:35;21.80;1.00
33067;DHT22;19428;49.024;8.366;2023-06-14T08:23:02;22.00;1.00
33067;DHT22;19428;49.024;8.366;2023-06-14T08:25:27;22.10;1.00
33067;DHT22;19428;49.024;8.366;2023-06-14T08:27:53;22.00;1.00
33067;DHT22;19428;49.024;8.366;2023-06-14T08:30:18;22.00;1.00
33067;DHT22;19428;49.024;8.366;2023-06-14T08:32:44;22.40;1.00
33067;DHT22;19428;49.024;8.366;2023-06-14T08:35:10;22.10;1.00
33067;DHT22;19428;49.024;8.366;2023-06-14T08:37:41;22.20;1.00
33067;DHT22;19428;49.024;8.366;2023-06-14T08:40:20;22.30;1.00
33067;DHT22;19428;49.024;8.366;2023-06-14T08:42:53;22.40;1.00
33067;DHT22;19428;49.024;8.366;2023-06-14T08:45:20;22.20;1.00
33067;DHT22;19428;49.024;8.366;2023-06-14T08:47:47;22.30;1.00
33067;DHT22;19428;49.024;8.366;2023-06-14T08:50:19;22.80;1.00
33067;DHT22;19428;49.024;8.366;2023-06-14T08:52:45;22.50;1.00
33067;DHT22;19428;49.024;8.366;2023-06-14T08:55:16;22.80;1.00
33067;DHT22;19428;49.024;8.366;2023-06-14T08:57:44;22.70;1.00
33067;DHT22;19428;49.024;8.366;2023-06-14T09:00:12;22.40;1.00
33067;DHT22;19428;49.024;8.366;2023-06-14T09:02:39;23.00;1.00
33067;DHT22;19428;49.024;8.366;2023-06-14T09:05:09;22.90;1.00
33067;DHT22;19428;49.024;8.366;2023-06-14T09:07:35;22.60;1.00
33067;DHT22;19428;49.024;8.366;2023-06-14T09:10:11;22.60;1.00
33067;DHT22;19428;49.024;8.366;2023-06-14T09:12:37;22.70;1.00
33067;DHT22;19428;49.024;8.366;2023-06-14T09:15:04;22.40;1.00
33067;DHT22;19428;49.024;8.366;2023-06-14T09:17:38;22.80;1.00
33067;DHT22;19428;49.024;8.366;2023-06-14T09:20:04;22.70;1.00
33067;DHT22;19428;49.024;8.366;2023-06-14T09:22:34;22.50;1.00
33067;DHT22;19428;49.024;8.366;2023-06-14T09:25:00;22.80;1.00
33067;DHT22;19428;49.024;8.366;2023-06-14T09:27:26;22.90;1.00
33067;DHT22;19428;49.024;8.366;2023-06-14T09:29:53;23.20;1.00
33067;DHT22;19428;49.024;8.366;2023-06-14T09:32:18;23.10;1.00
33067;DHT22;19428;49.024;8.366;2023-06-14T09:34:45;23.30;1.00
33067;DHT22;19428;49.024;8.366;2023-06-14T09:37:11;23.60;1.00
33067;DHT22;19428;49.024;8.366;2023-06-14T09:39:49;23.10;1.00
33067;DHT22;19428;49.024;8.366;2023-06-14T09:42:19;23.60;1.00
33067;DHT22;19428;49.024;8.366;2023-06-14T09:44:48;23.10;1.00
33067;DHT22;19428;49.024;8.366;2023-06-14T09:47:15;23.00;1.00
33067;DHT22;19428;49.024;8.366;2023-06-14T09:49:41;23.20;1.00
33067;DHT22;19428;49.024;8.366;2023-06-14T09:52:08;23.40;1.00
33067;DHT22;19428;49.024;8.366;2023-06-14T09:54:41;23.40;1.00
33067;DHT22;19428;49.024;8.366;2023-06-14T09:57:12;22.90;1.00
33067;DHT22;19428;49.024;8.366;2023-06-14T09:59:44;23.20;1.00
33067;DHT22;19428;49.024;8.366;2023-06-14T10:02:28;23.50;1.00
33067;DHT22;19428;49.024;8.366;2023-06-14T10:05:05;23.70;1.00
33067;DHT22;19428;49.024;8.366;2023-06-14T10:07:53;23.80;1.00
33067;DHT22;19428;49.024;8.366;2023-06-14T10:10:21;23.90;1.00
33067;DHT22;19428;49.024;8.366;2023-06-14T10:12:47;23.80;1.00
33067;DHT22;19428;49.024;8.366;2023-06-14T10:15:20;24.20;1.00
33067;DHT22;19428;49.024;8.366;2023-06-14T10:18:19;24.00;1.00
33067;DHT22;19428;49.024;8.366;2023-06-14T10:21:08;24.20;1.00
33067;DHT22;19428;49.024;8.366;2023-06-14T10:23:37;24.20;1.00
33067;DHT22;19428;49.024;8.366;2023-06-14T10:26:05;24.30;1.00
33067;DHT22;19428;49.024;8.366;2023-06-14T10:28:31;24.30;1.00
33067;DHT22;19428;49.024;8.366;2023-06-14T10:31:11;24.40;1.00
33067;DHT22;19428;49.024;8.366;2023-06-14T10:33:49;25.00;1.00
33067;DHT22;19428;49.024;8.366;2023-06-14T10:41:38;23.50;1.00
33067;DHT22;19428;49.024;8.366;2023-06-14T10:46:55;23.60;1.00
33067;DHT22;19428;49.024;8.366;2023-06-14T10:49:37;24.20;1.00
33067;DHT22;19428;49.024;8.366;2023-06-14T10:52:09;24.50;1.00
33067;DHT22;19428;49.024;8.366;2023-06-14T10:55:05;24.90;1.00
33067;DHT22;19428;49.024;8.366;2023-06-14T10:57:32;24.90;1.00
33067;DHT22;19428;49.024;8.366;2023-06-14T10:59:59;25.10;1.00
33067;DHT22;19428;49.024;8.366;2023-06-14T11:05:29;26.00;1.00
33067;DHT22;19428;49.024;8.366;2023-06-14T11:10:47;24.70;1.00
33067;DHT22;19428;49.024;8.366;2023-06-14T11:13:16;24.30;1.00
33067;DHT22;19428;49.024;8.366;2023-06-14T11:15:47;23.90;1.00
33067;DHT22;19428;49.024;8.366;2023-06-14T11:18:15;23.70;1.00
33067;DHT22;19428;49.024;8.366;2023-06-14T11:20:42;23.90;1.00
33067;DHT22;19428;49.024;8.366;2023-06-14T11:23:07;24.20;1.00
33067;DHT22;19428;49.024;8.366;2023-06-14T11:25:33;23.80;1.00
33067;DHT22;19428;49.024;8.366;2023-06-14T11:27:58;24.10;1.00
33067;DHT22;19428;49.024;8.366;2023-06-14T11:30:24;24.00;1.00
33067;DHT22;19428;49.024;8.366;2023-06-14T11:32:54;24.20;1.00
33067;DHT22;19428;49.024;8.366;2023-06-14T11:35:24;25.20;1.00
33067;DHT22;19428;49.024;8.366;2023-06-14T11:37:56;24.90;1.00
33067;DHT22;19428;49.024;8.366;2023-06-14T11:40:26;24.80;1.00
33067;DHT22;19428;49.024;8.366;2023-06-14T11:43:00;24.10;1.00
33067;DHT22;19428;49.024;8.366;2023-06-14T11:45:27;25.20;1.00
33067;DHT22;19428;49.024;8.366;2023-06-14T11:47:55;26.80;1.00
33067;DHT22;19428;49.024;8.366;2023-06-14T11:50:22;26.50;1.00
33067;DHT22;19428;49.024;8.366;2023-06-14T11:52:58;26.90;1.00
33067;DHT22;19428;49.024;8.366;2023-06-14T11:55:35;26.60;1.00
33067;DHT22;19428;49.024;8.366;2023-06-14T11:58:01;27.10;1.00
33067;DHT22;19428;49.024;8.366;2023-06-14T12:00:27;25.30;1.00
33067;DHT22;19428;49.024;8.366;2023-06-14T12:02:53;25.30;1.00
33067;DHT22;19428;49.024;8.366;2023-06-14T12:05:21;24.70;1.00
33067;DHT22;19428;49.024;8.366;2023-06-14T12:07:47;23.90;1.00
33067;DHT22;19428;49.024;8.366;2023-06-14T12:10:14;23.90;1.00
33067;DHT22;19428;49.024;8.366;2023-06-14T12:12:41;24.90;1.00
33067;DHT22;19428;49.024;8.366;2023-06-14T12:15:08;25.50;1.00
33067;DHT22;19428;49.024;8.366;2023-06-14T12:17:35;26.50;1.00
33067;DHT22;19428;49.024;8.366;2023-06-14T12:20:14;26.90;1.00
33067;DHT22;19428;49.024;8.366;2023-06-14T12:22:56;25.80;1.00
33067;DHT22;19428;49.024;8.366;2023-06-14T12:25:34;25.70;1.00
33067;DHT22;19428;49.024;8.366;2023-06-14T12:28:08;25.70;1.00
33067;DHT22;19428;49.024;8.366;2023-06-14T12:30:35;26.10;1.00
33067;DHT22;19428;49.024;8.366;2023-06-14T12:33:02;26.60;1.00
33067;DHT22;19428;49.024;8.366;2023-06-14T12:35:28;24.90;1.00
33067;DHT22;19428;49.024;8.366;2023-06-14T12:37:54;24.40;1.00
33067;DHT22;19428;49.024;8.366;2023-06-14T12:40:19;26.20;1.00
33067;DHT22;19428;49.024;8.366;2023-06-14T12:42:45;25.30;1.00
33067;DHT22;19428;49.024;8.366;2023-06-14T12:45:14;26.60;1.00
33067;DHT22;19428;49.024;8.366;2023-06-14T12:47:40;27.20;1.00
33067;DHT22;19428;49.024;8.366;2023-06-14T12:50:06;26.70;1.00
33067;DHT22;19428;49.024;8.366;2023-06-14T12:52:32;27.00;1.00
33067;DHT22;19428;49.024;8.366;2023-06-14T12:55:04;28.30;1.00
33067;DHT22;19428;49.024;8.366;2023-06-14T12:57:30;28.20;1.00
33067;DHT22;19428;49.024;8.366;2023-06-14T12:59:56;27.90;1.00
33067;DHT22;19428;49.024;8.366;2023-06-14T13:02:22;26.70;1.00
33067;DHT22;19428;49.024;8.366;2023-06-14T13:04:49;25.90;1.00
33067;DHT22;19428;49.024;8.366;2023-06-14T13:07:14;27.20;1.00
33067;DHT22;19428;49.024;8.366;2023-06-14T13:09:40;27.70;1.00
33067;DHT22;19428;49.024;8.366;2023-06-14T13:12:07;28.90;1.00
33067;DHT22;19428;49.024;8.366;2023-06-14T13:14:33;27.70;1.00
33067;DHT22;19428;49.024;8.366;2023-06-14T13:16:58;28.50;1.00
33067;DHT22;19428;49.024;8.366;2023-06-14T13:19:24;27.10;1.00
33067;DHT22;19428;49.024;8.366;2023-06-14T13:21:50;26.00;1.00
33067;DHT22;19428;49.024;8.366;2023-06-14T13:24:16;27.40;1.00
33067;DHT22;19428;49.024;8.366;2023-06-14T13:26:41;26.90;1.00
33067;DHT22;19428;49.024;8.366;2023-06-14T13:29:07;26.40;1.00
33067;DHT22;19428;49.024;8.366;2023-06-14T13:31:33;27.20;1.00
33067;DHT22;19428;49.024;8.366;2023-06-14T13:33:58;27.00;1.00
33067;DHT22;19428;49.024;8.366;2023-06-14T13:36:24;27.10;1.00
33067;DHT22;19428;49.024;8.366;2023-06-14T13:38:50;25.90;1.00
33067;DHT22;19428;49.024;8.366;2023-06-14T13:41:17;27.70;1.00
33067;DHT22;19428;49.024;8.366;2023-06-14T13:43:43;27.70;1.00
33067;DHT22;19428;49.024;8.366;2023-06-14T13:46:09;26.90;1.00
33067;DHT22;19428;49.024;8.366;2023-06-14T13:48:34;27.00;1.00
33067;DHT22;19428;49.024;8.366;2023-06-14T13:51:00;28.00;1.00
33067;DHT22;19428;49.024;8.366;2023-06-14T13:53:26;29.30;1.00
33067;DHT22;19428;49.024;8.366;2023-06-14T13:55:53;27.40;1.00
33067;DHT22;19428;49.024;8.366;2023-06-14T13:58:19;28.00;1.00
33067;DHT22;19428;49.024;8.366;2023-06-14T14:00:45;25.80;1.00
33067;DHT22;19428;49.024;8.366;2023-06-14T14:03:10;25.10;1.00
33067;DHT22;19428;49.024;8.366;2023-06-14T14:05:36;24.90;1.00
33067;DHT22;19428;49.024;8.366;2023-06-14T14:08:02;24.80;1.00
33067;DHT22;19428;49.024;8.366;2023-06-14T14:10:29;24.70;1.00
33067;DHT22;19428;49.024;8.366;2023-06-14T14:12:55;24.70;1.00
33067;DHT22;19428;49.024;8.366;2023-06-14T14:15:20;25.40;1.00
33067;DHT22;19428;49.024;8.366;2023-06-14T14:17:46;26.40;1.00
33067;DHT22;19428;49.024;8.366;2023-06-14T14:20:12;26.50;1.00
33067;DHT22;19428;49.024;8.366;2023-06-14T14:22:43;26.50;1.00
33067;DHT22;19428;49.024;8.366;2023-06-14T14:25:09;27.90;1.00
33067;DHT22;19428;49.024;8.366;2023-06-14T14:27:36;26.40;1.00
33067;DHT22;19428;49.024;8.366;2023-06-14T14:30:05;26.80;1.00
33067;DHT22;19428;49.024;8.366;2023-06-14T14:32:31;27.00;1.00
33067;DHT22;19428;49.024;8.366;2023-06-14T14:34:56;26.90;1.00
33067;DHT22;19428;49.024;8.366;2023-06-14T14:37:22;27.40;1.00
33067;DHT22;19428;49.024;8.366;2023-06-14T14:39:47;27.80;1.00
33067;DHT22;19428;49.024;8.366;2023-06-14T14:42:13;27.40;1.00
33067;DHT22;19428;49.024;8.366;2023-06-14T14:44:39;27.30;1.00
33067;DHT22;19428;49.024;8.366;2023-06-14T14:47:05;27.00;1.00
33067;DHT22;19428;49.024;8.366;2023-06-14T14:49:31;27.50;1.00
33067;DHT22;19428;49.024;8.366;2023-06-14T14:51:57;27.50;1.00
33067;DHT22;19428;49.024;8.366;2023-06-14T14:54:23;28.30;1.00
33067;DHT22;19428;49.024;8.366;2023-06-14T14:56:50;27.70;1.00
33067;DHT22;19428;49.024;8.366;2023-06-14T14:59:16;27.20;1.00
33067;DHT22;19428;49.024;8.366;2023-06-14T15:01:41;26.30;1.00
33067;DHT22;19428;49.024;8.366;2023-06-14T15:04:07;27.30;1.00
33067;DHT22;19428;49.024;8.366;2023-06-14T15:06:32;26.70;1.00
33067;DHT22;19428;49.024;8.366;2023-06-14T15:09:00;26.90;1.00
33067;DHT22;19428;49.024;8.366;2023-06-14T15:11:26;27.70;1.00
33067;DHT22;19428;49.024;8.366;2023-06-14T15:13:52;27.50;1.00
33067;DHT22;19428;49.024;8.366;2023-06-14T15:16:18;28.00;1.00
33067;DHT22;19428;49.024;8.366;2023-06-14T15:18:43;27.60;1.00
33067;DHT22;19428;49.024;8.366;2023-06-14T15:21:09;26.70;1.00
33067;DHT22;19428;49.024;8.366;2023-06-14T15:23:34;27.60;1.00
33067;DHT22;19428;49.024;8.366;2023-06-14T15:26:00;27.40;1.00
33067;DHT22;19428;49.024;8.366;2023-06-14T15:28:26;26.60;1.00
33067;DHT22;19428;49.024;8.366;2023-06-14T15:30:55;27.20;1.00
33067;DHT22;19428;49.024;8.366;2023-06-14T15:33:20;26.80;1.00
33067;DHT22;19428;49.024;8.366;2023-06-14T15:35:46;27.50;1.00
33067;DHT22;19428;49.024;8.366;2023-06-14T15:38:12;28.00;1.00
33067;DHT22;19428;49.024;8.366;2023-06-14T15:40:37;27.90;1.00
33067;DHT22;19428;49.024;8.366;2023-06-14T15:43:03;27.70;1.00
33067;DHT22;19428;49.024;8.366;2023-06-14T15:45:29;27.20;1.00
33067;DHT22;19428;49.024;8.366;2023-06-14T15:47:54;27.50;1.00
33067;DHT22;19428;49.024;8.366;2023-06-14T15:50:20;27.40;1.00
33067;DHT22;19428;49.024;8.366;2023-06-14T15:52:46;27.60;1.00
33067;DHT22;19428;49.024;8.366;2023-06-14T15:55:12;26.30;1.00
33067;DHT22;19428;49.024;8.366;2023-06-14T15:57:38;25.40;1.00
33067;DHT22;19428;49.024;8.366;2023-06-14T16:00:04;25.10;1.00
33067;DHT22;19428;49.024;8.366;2023-06-14T16:02:29;25.70;1.00